createdAt,value
2018-06-23T00:01:17.034Z,0.40
2018-06-23T00:03:45.703Z,0.30
2018-06-23T00:06:14.573Z,0.30
2018-06-23T00:08:43.203Z,0.30
2018-06-23T00:11:11.768Z,0.20
2018-06-23T00:13:40.399Z,0.20
2018-06-23T00:16:09.086Z,0.27
2018-06-23T00:18:37.801Z,0.30
2018-06-23T00:21:06.413Z,0.30
2018-06-23T00:23:35.088Z,0.57
2018-06-23T00:26:08.920Z,0.30
2018-06-23T00:28:37.695Z,0.30
2018-06-23T00:31:06.875Z,0.40
2018-06-23T00:33:35.436Z,0.40
2018-06-23T00:36:04.066Z,0.30
2018-06-23T00:38:32.666Z,0.20
2018-06-23T00:41:01.390Z,0.30
2018-06-23T00:43:30.042Z,0.27
2018-06-23T00:45:58.861Z,0.30
2018-06-23T00:48:27.594Z,0.20
2018-06-23T00:50:56.277Z,0.40
2018-06-23T00:53:24.905Z,0.40
2018-06-23T00:55:53.598Z,0.30
2018-06-23T00:58:22.257Z,0.47
2018-06-23T01:00:50.832Z,0.20
2018-06-23T01:03:19.472Z,0.40
2018-06-23T01:05:48.119Z,0.30
2018-06-23T01:08:16.846Z,0.30
2018-06-23T01:10:45.562Z,0.20
2018-06-23T01:13:14.300Z,0.30
2018-06-23T01:15:42.953Z,0.30
2018-06-23T01:18:11.559Z,0.17
2018-06-23T01:20:40.392Z,0.30
2018-06-23T01:23:09.102Z,0.30
2018-06-23T01:25:37.733Z,0.30
2018-06-23T01:28:06.387Z,0.23
2018-06-23T01:30:35.019Z,0.20
2018-06-23T01:33:03.669Z,0.27
2018-06-23T01:35:32.418Z,0.20
2018-06-23T01:38:01.120Z,0.37
2018-06-23T01:40:29.698Z,0.20
2018-06-23T01:42:58.306Z,0.23
2018-06-23T01:45:27.116Z,0.10
2018-06-23T01:47:55.688Z,0.30
2018-06-23T01:50:24.287Z,0.30
2018-06-23T01:52:52.935Z,0.20
2018-06-23T01:55:21.563Z,0.23
2018-06-23T01:57:50.196Z,0.20
2018-06-23T02:00:18.767Z,0.20
2018-06-23T02:02:47.378Z,0.30
2018-06-23T02:05:16.018Z,0.20
2018-06-23T02:07:44.792Z,0.20
2018-06-23T02:10:13.402Z,0.50
2018-06-23T02:12:42.038Z,0.20
2018-06-23T02:15:11.563Z,0.10
2018-06-23T02:17:45.348Z,0.10
2018-06-23T02:20:19.227Z,0.30
2018-06-23T02:22:52.938Z,0.20
2018-06-23T02:25:26.569Z,0.20
2018-06-23T02:28:00.510Z,0.10
2018-06-23T02:30:36.169Z,0.13
2018-06-23T02:33:09.824Z,0.23
2018-06-23T02:35:38.421Z,0.10
2018-06-23T02:38:07.185Z,0.20
2018-06-23T02:40:35.820Z,0.23
2018-06-23T02:43:04.454Z,0.20
2018-06-23T02:45:33.171Z,0.20
2018-06-23T02:48:01.891Z,0.30
2018-06-23T02:50:30.506Z,0.10
2018-06-23T02:52:59.228Z,0.30
2018-06-23T02:55:27.894Z,0.10
2018-06-23T02:57:56.516Z,0.37
2018-06-23T03:00:25.176Z,0.50
2018-06-23T03:02:53.799Z,0.20
2018-06-23T03:05:22.457Z,0.30
2018-06-23T03:07:51.161Z,0.20
2018-06-23T03:10:19.796Z,0.30
2018-06-23T03:12:48.465Z,0.40
2018-06-23T03:15:17.143Z,0.20
2018-06-23T03:17:46.589Z,0.30
2018-06-23T03:20:15.189Z,0.20
2018-06-23T03:22:43.889Z,0.37
2018-06-23T03:25:12.516Z,0.30
2018-06-23T03:27:41.190Z,0.37
2018-06-23T03:30:09.953Z,0.40
2018-06-23T03:32:38.684Z,0.40
2018-06-23T03:35:07.830Z,0.30
2018-06-23T03:37:36.455Z,0.30
2018-06-23T03:40:05.074Z,0.40
2018-06-23T03:42:33.625Z,0.60
2018-06-23T03:45:02.370Z,0.30
2018-06-23T03:47:31.107Z,0.30
2018-06-23T03:49:59.914Z,0.20
2018-06-23T03:52:28.584Z,0.30
2018-06-23T03:54:57.700Z,0.43
2018-06-23T03:57:26.310Z,0.43
2018-06-23T03:59:54.941Z,0.30
2018-06-23T04:02:23.545Z,0.40
2018-06-23T04:04:52.288Z,0.40
2018-06-23T04:07:20.888Z,0.40
2018-06-23T04:09:49.576Z,0.40
2018-06-23T04:12:18.259Z,0.30
2018-06-23T04:14:46.928Z,0.23
2018-06-23T04:17:15.472Z,0.37
2018-06-23T04:19:44.208Z,0.50
2018-06-23T04:22:12.866Z,0.40
2018-06-23T04:24:41.579Z,0.20
2018-06-23T04:27:10.324Z,0.30
2018-06-23T04:29:39.006Z,0.30
2018-06-23T04:32:07.726Z,0.40
2018-06-23T04:34:36.408Z,0.30
2018-06-23T04:37:05.040Z,0.30
2018-06-23T04:39:33.821Z,0.20
2018-06-23T04:42:02.523Z,0.30
2018-06-23T04:44:31.204Z,0.50
2018-06-23T04:47:06.704Z,0.30
2018-06-23T04:49:35.542Z,0.30
2018-06-23T04:52:04.085Z,0.33
2018-06-23T04:54:32.750Z,0.20
2018-06-23T04:57:01.379Z,0.20
2018-06-23T04:59:30.034Z,0.30
2018-06-23T05:01:58.698Z,0.30
2018-06-23T05:04:27.251Z,0.27
2018-06-23T05:06:55.997Z,0.30
2018-06-23T05:09:24.713Z,0.30
2018-06-23T05:11:53.375Z,0.40
2018-06-23T05:14:21.953Z,0.40
2018-06-23T05:16:50.615Z,0.20
2018-06-23T05:19:19.291Z,0.37
2018-06-23T05:21:48.124Z,0.30
2018-06-23T05:24:16.885Z,0.20
2018-06-23T05:26:45.521Z,0.20
2018-06-23T05:29:14.167Z,0.30
2018-06-23T05:31:42.841Z,0.10
2018-06-23T05:34:11.505Z,0.40
2018-06-23T05:36:40.167Z,0.20
2018-06-23T05:39:09.975Z,0.20
2018-06-23T05:41:38.612Z,0.20
2018-06-23T05:44:07.259Z,0.30
2018-06-23T05:46:36.112Z,0.20
2018-06-23T05:49:04.822Z,0.30
2018-06-23T05:51:33.489Z,0.23
2018-06-23T05:54:02.229Z,0.20
2018-06-23T05:56:30.858Z,0.20
2018-06-23T05:58:59.498Z,0.20
2018-06-23T06:01:28.184Z,0.20
2018-06-23T06:03:56.774Z,0.23
2018-06-23T06:06:25.426Z,0.20
2018-06-23T06:08:54.034Z,0.10
2018-06-23T06:11:22.722Z,0.20
2018-06-23T06:13:51.482Z,0.20
2018-06-23T06:16:29.510Z,0.10
2018-06-23T06:18:58.118Z,0.33
2018-06-23T06:21:26.752Z,0.20
2018-06-23T06:23:55.366Z,0.10
2018-06-23T06:26:24.034Z,0.10
2018-06-23T06:28:52.643Z,0.20
2018-06-23T06:31:21.276Z,0.10
2018-06-23T06:33:50.017Z,0.20
2018-06-23T06:36:18.672Z,0.00
2018-06-23T06:38:47.302Z,0.20
2018-06-23T06:41:16.084Z,0.10
2018-06-23T06:43:44.704Z,0.13
2018-06-23T06:46:13.306Z,0.10
2018-06-23T06:48:42.018Z,0.10
2018-06-23T06:51:10.701Z,0.17
2018-06-23T06:53:39.425Z,0.10
2018-06-23T06:56:07.993Z,0.10
2018-06-23T06:58:36.737Z,0.00
2018-06-23T07:01:05.586Z,0.20
2018-06-23T07:03:34.377Z,0.10
2018-06-23T07:06:03.339Z,0.10
2018-06-23T07:08:31.929Z,0.10
2018-06-23T07:11:00.586Z,0.20
2018-06-23T07:13:29.218Z,0.10
2018-06-23T07:15:57.819Z,0.10
2018-06-23T07:18:26.407Z,0.00
2018-06-23T07:20:55.098Z,0.10
2018-06-23T07:23:23.763Z,0.10
2018-06-23T07:25:52.372Z,0.30
2018-06-23T07:28:21.117Z,0.13
2018-06-23T07:30:49.777Z,0.10
2018-06-23T07:33:18.381Z,0.10
2018-06-23T07:35:47.033Z,0.20
2018-06-23T07:38:15.655Z,0.00
2018-06-23T07:40:44.517Z,0.00
2018-06-23T07:43:13.322Z,0.10
2018-06-23T07:45:41.942Z,0.10
2018-06-23T07:48:10.574Z,0.10
2018-06-23T07:50:39.278Z,0.10
2018-06-23T07:53:08.951Z,0.00
2018-06-23T07:55:37.611Z,0.00
2018-06-23T07:58:06.390Z,0.03
2018-06-23T08:00:35.249Z,0.10
2018-06-23T08:03:04.010Z,0.00
2018-06-23T08:05:32.678Z,0.00
2018-06-23T08:08:01.472Z,0.10
2018-06-23T08:10:30.147Z,0.00
2018-06-23T08:12:58.808Z,0.10
2018-06-23T08:15:27.476Z,0.10
2018-06-23T08:17:56.069Z,0.20
2018-06-23T08:20:24.694Z,0.00
2018-06-23T08:22:53.262Z,0.10
2018-06-23T08:25:21.899Z,0.10
2018-06-23T08:27:50.696Z,0.20
2018-06-23T08:30:19.557Z,0.10
2018-06-23T08:32:48.395Z,0.00
2018-06-23T08:35:17.135Z,0.10
2018-06-23T08:37:45.933Z,0.00
2018-06-23T08:40:14.668Z,0.10
2018-06-23T08:42:43.415Z,0.10
2018-06-23T08:45:12.096Z,0.07
2018-06-23T08:47:40.816Z,0.10
2018-06-23T08:50:09.438Z,0.10
2018-06-23T08:52:38.115Z,0.10
2018-06-23T08:55:06.779Z,0.10
2018-06-23T08:57:35.494Z,0.00
2018-06-23T09:00:04.598Z,0.20
2018-06-23T09:02:33.255Z,0.10
2018-06-23T09:05:01.878Z,0.20
2018-06-23T09:07:30.554Z,0.10
2018-06-23T09:09:59.161Z,0.20
2018-06-23T09:12:27.734Z,0.10
2018-06-23T09:14:56.283Z,0.00
2018-06-23T09:17:24.937Z,0.20
2018-06-23T09:19:53.656Z,0.10
2018-06-23T09:22:22.313Z,0.10
2018-06-23T09:24:51.090Z,0.10
2018-06-23T09:27:19.681Z,0.17
2018-06-23T09:29:48.504Z,0.20
2018-06-23T09:32:17.260Z,0.07
2018-06-23T09:34:45.987Z,0.10
2018-06-23T09:37:14.595Z,0.20
2018-06-23T09:39:44.046Z,0.37
2018-06-23T09:42:12.788Z,0.20
2018-06-23T09:44:41.486Z,0.30
2018-06-23T09:47:10.245Z,0.20
2018-06-23T09:49:39.102Z,0.20
2018-06-23T09:52:07.946Z,0.27
2018-06-23T09:54:36.679Z,0.20
2018-06-23T09:57:05.927Z,0.10
2018-06-23T09:59:34.536Z,0.30
2018-06-23T10:02:03.263Z,0.27
2018-06-23T10:04:31.958Z,0.20
2018-06-23T10:07:00.906Z,0.10
2018-06-23T10:09:29.273Z,0.20
2018-06-23T10:11:57.911Z,0.30
2018-06-23T10:14:26.555Z,0.20
2018-06-23T10:16:55.285Z,0.20
2018-06-23T10:19:24.030Z,0.20
2018-06-23T10:21:52.694Z,0.20
2018-06-23T10:24:21.375Z,0.30
2018-06-23T10:26:50.120Z,0.10
2018-06-23T10:29:18.767Z,0.20
2018-06-23T10:31:47.567Z,0.40
2018-06-23T10:34:16.228Z,0.37
2018-06-23T10:36:44.840Z,0.60
2018-06-23T10:39:13.456Z,0.50
2018-06-23T10:41:42.173Z,0.40
2018-06-23T10:44:10.848Z,0.30
2018-06-23T10:46:39.460Z,0.40
2018-06-23T10:49:08.209Z,0.30
2018-06-23T10:51:37.206Z,0.23
2018-06-23T10:54:06.035Z,0.20
2018-06-23T10:56:34.752Z,0.30
2018-06-23T10:59:03.506Z,0.43
2018-06-23T11:01:32.270Z,0.20
2018-06-23T11:04:00.950Z,0.50
2018-06-23T11:06:29.520Z,0.40
2018-06-23T11:08:58.090Z,0.50
2018-06-23T11:11:26.804Z,0.47
2018-06-23T11:13:55.485Z,0.30
2018-06-23T11:16:24.144Z,0.40
2018-06-23T11:18:52.767Z,0.30
2018-06-23T11:21:21.458Z,0.30
2018-06-23T11:23:50.132Z,0.37
2018-06-23T11:26:18.794Z,0.50
2018-06-23T11:28:47.453Z,0.47
2018-06-23T11:31:16.166Z,0.60
2018-06-23T11:33:45.127Z,0.57
2018-06-23T11:36:13.780Z,0.80
2018-06-23T11:38:42.443Z,0.50
2018-06-23T11:41:11.489Z,0.30
2018-06-23T11:43:40.254Z,0.33
2018-06-23T11:46:08.900Z,0.33
2018-06-23T11:48:37.620Z,0.57
2018-06-23T11:51:06.489Z,0.30
2018-06-23T11:53:35.045Z,0.40
2018-06-23T11:56:03.583Z,0.30
2018-06-23T11:58:32.234Z,0.43
2018-06-23T12:01:00.917Z,0.27
2018-06-23T12:03:29.567Z,0.30
2018-06-23T12:05:58.228Z,0.50
2018-06-23T12:08:26.805Z,0.33
2018-06-23T12:10:55.636Z,0.20
2018-06-23T12:13:24.359Z,0.17
2018-06-23T12:15:52.958Z,0.30
2018-06-23T12:18:21.647Z,0.20
2018-06-23T12:20:50.242Z,0.10
2018-06-23T12:23:19.009Z,0.10
2018-06-23T12:25:47.668Z,0.10
2018-06-23T12:28:16.365Z,0.00
2018-06-23T12:30:45.040Z,0.10
2018-06-23T12:33:13.667Z,0.10
2018-06-23T12:35:42.808Z,0.20
2018-06-23T12:38:11.431Z,0.23
2018-06-23T12:40:40.131Z,0.03
2018-06-23T12:43:08.844Z,0.00
2018-06-23T12:45:37.435Z,0.10
2018-06-23T12:48:06.125Z,0.20
2018-06-23T12:50:35.004Z,0.20
2018-06-23T12:53:03.907Z,0.10
2018-06-23T12:55:32.563Z,0.30
2018-06-23T12:58:01.211Z,0.20
2018-06-23T13:00:29.984Z,0.27
2018-06-23T13:02:58.744Z,0.30
2018-06-23T13:05:27.391Z,0.20
2018-06-23T13:07:56.022Z,0.20
2018-06-23T13:10:24.744Z,0.30
2018-06-23T13:12:53.339Z,0.20
2018-06-23T13:15:21.995Z,0.17
2018-06-23T13:17:50.593Z,0.20
2018-06-23T13:20:19.268Z,0.40
2018-06-23T13:22:48.003Z,0.20
2018-06-23T13:25:16.641Z,0.20
2018-06-23T13:27:45.333Z,0.30
2018-06-23T13:30:13.977Z,0.17
2018-06-23T13:32:42.598Z,0.10
2018-06-23T13:35:11.426Z,0.10
2018-06-23T13:37:40.241Z,0.20
2018-06-23T13:40:08.885Z,0.10
2018-06-23T13:42:37.589Z,0.13
2018-06-23T13:45:06.603Z,0.33
2018-06-23T13:47:35.314Z,0.20
2018-06-23T13:50:03.995Z,0.20
2018-06-23T13:52:32.700Z,0.20
2018-06-23T13:55:01.330Z,0.30
2018-06-23T13:57:29.927Z,0.23
2018-06-23T13:59:58.592Z,0.20
2018-06-23T14:02:27.280Z,0.20
2018-06-23T14:04:55.860Z,0.20
2018-06-23T14:07:24.667Z,0.10
2018-06-23T14:09:53.388Z,0.20
2018-06-23T14:12:22.086Z,0.20
2018-06-23T14:14:50.885Z,0.30
2018-06-23T14:17:19.454Z,0.27
2018-06-23T14:19:48.134Z,0.20
2018-06-23T14:22:16.862Z,0.20
2018-06-23T14:24:45.528Z,0.13
2018-06-23T14:27:14.192Z,0.20
2018-06-23T14:29:42.952Z,0.20
2018-06-23T14:32:11.802Z,0.20
2018-06-23T14:34:40.348Z,0.20
2018-06-23T14:37:09.105Z,0.10
2018-06-23T14:39:37.871Z,0.10
2018-06-23T14:42:06.525Z,0.20
2018-06-23T14:44:35.236Z,0.40
2018-06-23T14:47:03.869Z,0.20
2018-06-23T14:49:32.437Z,0.20
2018-06-23T14:52:01.174Z,0.30
2018-06-23T14:54:29.744Z,0.20
2018-06-23T14:56:58.504Z,0.40
2018-06-23T14:59:27.244Z,0.30
2018-06-23T15:01:55.822Z,0.17
2018-06-23T15:04:24.535Z,0.33
2018-06-23T15:06:53.346Z,0.40
2018-06-23T15:09:33.080Z,0.30
2018-06-23T15:12:12.614Z,0.23
2018-06-23T15:14:41.426Z,0.40
2018-06-23T15:17:10.112Z,0.40
2018-06-23T15:19:38.691Z,0.70
2018-06-23T15:22:07.321Z,0.50
2018-06-23T15:24:36.039Z,0.40
2018-06-23T15:27:04.850Z,0.47
2018-06-23T15:29:33.601Z,0.47
2018-06-23T15:32:02.336Z,0.63
2018-06-23T15:34:31.156Z,0.40
2018-06-23T15:36:59.901Z,0.83
2018-06-23T15:39:28.613Z,0.50
2018-06-23T15:41:57.319Z,0.60
2018-06-23T15:44:25.905Z,0.60
2018-06-23T15:46:54.655Z,0.60
2018-06-23T15:49:23.320Z,0.50
2018-06-23T15:51:51.948Z,0.40
2018-06-23T15:54:20.812Z,0.47
2018-06-23T15:56:49.522Z,0.33
2018-06-23T15:59:18.594Z,0.57
2018-06-23T16:01:47.484Z,0.70
2018-06-23T16:04:15.955Z,0.50
2018-06-23T16:06:44.579Z,0.43
2018-06-23T16:09:14.019Z,0.40
2018-06-23T16:11:43.076Z,0.57
2018-06-23T16:14:11.954Z,0.60
2018-06-23T16:16:40.716Z,0.50
2018-06-23T16:19:09.328Z,0.40
2018-06-23T16:21:38.054Z,0.77
2018-06-23T16:24:06.720Z,0.40
2018-06-23T16:26:35.340Z,0.50
2018-06-23T16:29:04.016Z,0.40
2018-06-23T16:31:32.658Z,0.70
2018-06-23T16:34:01.312Z,0.60
2018-06-23T16:36:30.093Z,0.40
2018-06-23T16:38:58.946Z,0.53
2018-06-23T16:41:27.925Z,0.93
2018-06-23T16:43:56.714Z,0.60
2018-06-23T16:46:25.350Z,0.40
2018-06-23T16:48:53.992Z,0.60
2018-06-23T16:51:22.630Z,0.60
2018-06-23T16:53:51.320Z,0.57
2018-06-23T16:56:19.925Z,0.80
2018-06-23T16:58:48.676Z,0.60
2018-06-23T17:01:17.400Z,0.70
2018-06-23T17:03:46.156Z,0.60
2018-06-23T17:06:14.725Z,0.43
2018-06-23T17:08:43.562Z,0.57
2018-06-23T17:11:12.326Z,0.57
2018-06-23T17:13:41.027Z,0.60
2018-06-23T17:16:09.757Z,0.50
2018-06-23T17:18:38.702Z,0.57
2018-06-23T17:21:07.480Z,0.60
2018-06-23T17:23:36.105Z,0.60
2018-06-23T17:26:04.895Z,0.43
2018-06-23T17:28:33.579Z,0.60
2018-06-23T17:31:02.194Z,0.60
2018-06-23T17:33:30.940Z,0.43
2018-06-23T17:35:59.664Z,0.60
2018-06-23T17:38:28.395Z,0.47
2018-06-23T17:40:57.050Z,0.60
2018-06-23T17:43:26.065Z,0.70
2018-06-23T17:45:55.033Z,0.67
2018-06-23T17:48:24.323Z,0.50
2018-06-23T17:50:52.977Z,0.50
2018-06-23T17:53:21.646Z,0.70
2018-06-23T17:55:50.407Z,0.63
2018-06-23T17:58:19.134Z,0.67
2018-06-23T18:00:47.800Z,0.40
2018-06-23T18:03:16.458Z,0.57
2018-06-23T18:05:45.096Z,0.60
2018-06-23T18:08:13.762Z,0.50
2018-06-23T18:10:42.414Z,0.67
2018-06-23T18:13:11.159Z,0.70
2018-06-23T18:15:39.826Z,0.60
2018-06-23T18:18:08.456Z,0.60
2018-06-23T18:20:37.061Z,0.77
2018-06-23T18:23:05.729Z,0.50
2018-06-23T18:25:34.427Z,0.70
2018-06-23T18:28:03.211Z,0.83
2018-06-23T18:30:31.749Z,0.70
2018-06-23T18:33:00.415Z,0.77
2018-06-23T18:35:29.122Z,0.60
2018-06-23T18:37:57.867Z,0.73
2018-06-23T18:40:26.520Z,0.60
2018-06-23T18:42:55.381Z,0.70
2018-06-23T18:45:24.029Z,1.03
2018-06-23T18:47:52.936Z,0.70
2018-06-23T18:50:21.687Z,0.80
2018-06-23T18:52:50.364Z,0.83
2018-06-23T18:55:19.052Z,0.60
2018-06-23T18:57:47.685Z,0.70
2018-06-23T19:00:16.426Z,0.70
2018-06-23T19:02:45.083Z,0.67
2018-06-23T19:05:14.032Z,0.70
2018-06-23T19:07:42.848Z,0.70
2018-06-23T19:10:11.556Z,0.93
2018-06-23T19:12:40.232Z,0.97
2018-06-23T19:15:08.820Z,0.83
2018-06-23T19:17:37.390Z,0.83
2018-06-23T19:20:06.034Z,0.80
2018-06-23T19:22:34.722Z,0.83
2018-06-23T19:25:03.461Z,0.87
2018-06-23T19:27:32.216Z,0.80
2018-06-23T19:30:01.137Z,0.50
2018-06-23T19:32:29.831Z,0.77
2018-06-23T19:34:58.455Z,0.50
2018-06-23T19:37:27.151Z,0.70
2018-06-23T19:39:55.727Z,0.80
2018-06-23T19:42:24.565Z,0.70
2018-06-23T19:44:53.262Z,0.63
2018-06-23T19:47:21.915Z,0.83
2018-06-23T19:49:50.573Z,0.90
2018-06-23T19:52:19.253Z,1.10
2018-06-23T19:54:48.010Z,0.80
2018-06-23T19:57:16.663Z,0.70
2018-06-23T19:59:45.384Z,0.90
2018-06-23T20:02:13.942Z,1.03
2018-06-23T20:04:42.649Z,0.90
2018-06-23T20:07:11.342Z,0.90
2018-06-23T20:09:40.069Z,1.20
2018-06-23T20:12:08.772Z,1.20
2018-06-23T20:14:37.455Z,1.13
2018-06-23T20:17:06.326Z,0.90
2018-06-23T20:19:34.880Z,1.00
2018-06-23T20:22:03.619Z,0.90
2018-06-23T20:24:32.351Z,1.00
2018-06-23T20:27:01.869Z,1.17
2018-06-23T20:29:30.698Z,1.10
2018-06-23T20:31:59.353Z,1.03
2018-06-23T20:34:27.961Z,1.07
2018-06-23T20:36:56.766Z,1.00
2018-06-23T20:39:25.471Z,0.97
2018-06-23T20:41:54.125Z,0.97
2018-06-23T20:44:22.782Z,1.00
2018-06-23T20:46:51.577Z,0.70
2018-06-23T20:49:20.493Z,0.73
2018-06-23T20:51:49.127Z,0.87
2018-06-23T20:54:17.784Z,0.70
2018-06-23T20:56:46.390Z,0.50
2018-06-23T20:59:15.090Z,0.50
2018-06-23T21:01:43.686Z,0.60
2018-06-23T21:04:12.288Z,0.53
2018-06-23T21:06:40.916Z,0.40
2018-06-23T21:09:10.758Z,0.50
2018-06-23T21:11:39.429Z,0.40
2018-06-23T21:14:08.213Z,0.40
2018-06-23T21:16:36.820Z,0.70
2018-06-23T21:19:05.467Z,0.47
2018-06-23T21:21:34.257Z,0.40
2018-06-23T21:24:02.872Z,0.50
2018-06-23T21:26:31.591Z,0.43
2018-06-23T21:29:00.297Z,0.40
2018-06-23T21:31:29.130Z,0.40
2018-06-23T21:33:57.767Z,0.60
2018-06-23T21:36:26.422Z,0.40
2018-06-23T21:38:55.108Z,0.40
2018-06-23T21:41:23.824Z,0.40
2018-06-23T21:43:52.513Z,0.50
2018-06-23T21:46:21.202Z,0.30
2018-06-23T21:48:49.959Z,0.30
2018-06-23T21:51:18.624Z,0.30
2018-06-23T21:53:47.377Z,0.40
2018-06-23T21:56:16.085Z,0.20
2018-06-23T21:58:44.971Z,0.50
2018-06-23T22:01:13.835Z,0.50
2018-06-23T22:03:42.613Z,0.40
2018-06-23T22:06:11.201Z,0.30
2018-06-23T22:08:39.842Z,0.60
2018-06-23T22:11:08.472Z,0.37
2018-06-23T22:13:37.176Z,0.40
2018-06-23T22:16:05.952Z,0.40
2018-06-23T22:18:34.757Z,0.30
2018-06-23T22:21:03.462Z,0.60
2018-06-23T22:23:32.077Z,0.40
2018-06-23T22:26:00.803Z,0.40
2018-06-23T22:28:29.492Z,0.40
2018-06-23T22:30:58.030Z,0.30
2018-06-23T22:33:26.718Z,0.40
2018-06-23T22:35:55.415Z,0.20
2018-06-23T22:38:24.019Z,0.30
2018-06-23T22:40:52.697Z,0.30
2018-06-23T22:43:21.279Z,0.20
2018-06-23T22:45:50.000Z,0.30
2018-06-23T22:48:18.661Z,0.20
2018-06-23T22:50:47.264Z,0.30
2018-06-23T22:53:15.849Z,0.30
2018-06-23T22:55:44.459Z,0.27
2018-06-23T22:58:13.033Z,0.20
2018-06-23T23:00:41.741Z,0.20
2018-06-23T23:03:10.425Z,0.30
2018-06-23T23:05:39.012Z,0.30
2018-06-23T23:08:07.829Z,0.30
2018-06-23T23:10:36.484Z,0.30
2018-06-23T23:13:05.290Z,0.30
2018-06-23T23:15:33.948Z,0.30
2018-06-23T23:18:02.658Z,0.40
2018-06-23T23:20:31.327Z,0.20
2018-06-23T23:22:59.995Z,0.37
2018-06-23T23:25:28.904Z,0.30
2018-06-23T23:27:57.592Z,0.20
2018-06-23T23:30:26.269Z,0.13
2018-06-23T23:32:54.902Z,0.20
2018-06-23T23:35:23.595Z,0.30
2018-06-23T23:37:52.222Z,0.23
2018-06-23T23:40:20.882Z,0.20
2018-06-23T23:42:49.562Z,0.33
2018-06-23T23:45:18.261Z,0.13
2018-06-23T23:47:46.970Z,0.23
2018-06-23T23:50:15.670Z,0.20
2018-06-23T23:52:44.271Z,0.30
2018-06-23T23:55:12.921Z,0.37
2018-06-23T23:57:41.749Z,0.20
